sensor_id;sensor_type;location;lat;lon;timestamp;P1;durP1;ratioP1;P2;durP2;ratioP2
42196;SDS011;27866;48.146;17.098;2023-03-05T00:02:53;15.48;;;9.05;;
42196;SDS011;27866;48.146;17.098;2023-03-05T00:07:07;22.25;;;9.38;;
42196;SDS011;27866;48.146;17.098;2023-03-05T00:11:21;18.38;;;9.52;;
42196;SDS011;27866;48.146;17.098;2023-03-05T00:15:39;16.92;;;8.85;;
42196;SDS011;27866;48.146;17.098;2023-03-05T00:19:52;16.00;;;9.07;;
42196;SDS011;27866;48.146;17.098;2023-03-05T00:24:04;16.67;;;8.85;;
42196;SDS011;27866;48.146;17.098;2023-03-05T00:28:22;18.95;;;9.68;;
42196;SDS011;27866;48.146;17.098;2023-03-05T00:32:33;20.23;;;9.85;;
42196;SDS011;27866;48.146;17.098;2023-03-05T00:36:47;18.83;;;9.00;;
42196;SDS011;27866;48.146;17.098;2023-03-05T00:41:00;20.80;;;9.95;;
42196;SDS011;27866;48.146;17.098;2023-03-05T00:45:11;19.13;;;10.70;;
42196;SDS011;27866;48.146;17.098;2023-03-05T00:49:23;21.88;;;10.68;;
42196;SDS011;27866;48.146;17.098;2023-03-05T00:53:34;23.10;;;10.52;;
42196;SDS011;27866;48.146;17.098;2023-03-05T00:57:46;22.73;;;10.93;;
42196;SDS011;27866;48.146;17.098;2023-03-05T01:01:57;20.17;;;10.93;;
42196;SDS011;27866;48.146;17.098;2023-03-05T01:06:09;19.65;;;10.88;;
42196;SDS011;27866;48.146;17.098;2023-03-05T01:10:23;18.73;;;10.35;;
42196;SDS011;27866;48.146;17.098;2023-03-05T01:14:38;19.50;;;10.05;;
42196;SDS011;27866;48.146;17.098;2023-03-05T01:18:50;24.33;;;11.20;;
42196;SDS011;27866;48.146;17.098;2023-03-05T01:23:01;21.95;;;11.15;;
42196;SDS011;27866;48.146;17.098;2023-03-05T01:27:12;18.95;;;10.68;;
42196;SDS011;27866;48.146;17.098;2023-03-05T01:31:24;20.88;;;10.90;;
42196;SDS011;27866;48.146;17.098;2023-03-05T01:35:35;20.90;;;10.60;;
42196;SDS011;27866;48.146;17.098;2023-03-05T01:39:46;20.30;;;11.00;;
42196;SDS011;27866;48.146;17.098;2023-03-05T01:43:57;19.83;;;11.18;;
42196;SDS011;27866;48.146;17.098;2023-03-05T01:48:09;20.98;;;11.57;;
42196;SDS011;27866;48.146;17.098;2023-03-05T01:52:21;22.33;;;11.85;;
42196;SDS011;27866;48.146;17.098;2023-03-05T01:56:34;20.35;;;12.10;;
42196;SDS011;27866;48.146;17.098;2023-03-05T02:00:46;22.35;;;11.45;;
42196;SDS011;27866;48.146;17.098;2023-03-05T02:05:05;23.17;;;11.80;;
42196;SDS011;27866;48.146;17.098;2023-03-05T02:09:22;21.33;;;11.80;;
42196;SDS011;27866;48.146;17.098;2023-03-05T02:13:34;27.55;;;12.27;;
42196;SDS011;27866;48.146;17.098;2023-03-05T02:17:50;21.95;;;11.68;;
42196;SDS011;27866;48.146;17.098;2023-03-05T02:22:01;20.88;;;12.25;;
42196;SDS011;27866;48.146;17.098;2023-03-05T02:26:13;24.92;;;12.27;;
42196;SDS011;27866;48.146;17.098;2023-03-05T02:30:26;23.15;;;11.90;;
42196;SDS011;27866;48.146;17.098;2023-03-05T02:34:38;24.25;;;12.57;;
42196;SDS011;27866;48.146;17.098;2023-03-05T02:38:50;24.02;;;11.23;;
42196;SDS011;27866;48.146;17.098;2023-03-05T02:43:03;22.30;;;11.47;;
42196;SDS011;27866;48.146;17.098;2023-03-05T02:47:15;25.90;;;12.70;;
42196;SDS011;27866;48.146;17.098;2023-03-05T02:51:27;21.52;;;11.93;;
42196;SDS011;27866;48.146;17.098;2023-03-05T02:55:39;22.27;;;11.50;;
42196;SDS011;27866;48.146;17.098;2023-03-05T02:59:50;24.15;;;12.13;;
42196;SDS011;27866;48.146;17.098;2023-03-05T03:04:02;24.52;;;12.60;;
42196;SDS011;27866;48.146;17.098;2023-03-05T03:08:13;19.20;;;11.20;;
42196;SDS011;27866;48.146;17.098;2023-03-05T03:12:25;22.10;;;12.23;;
42196;SDS011;27866;48.146;17.098;2023-03-05T03:16:36;23.48;;;12.38;;
42196;SDS011;27866;48.146;17.098;2023-03-05T03:20:47;23.60;;;12.25;;
42196;SDS011;27866;48.146;17.098;2023-03-05T03:24:59;22.83;;;11.77;;
42196;SDS011;27866;48.146;17.098;2023-03-05T03:29:10;23.25;;;11.90;;
42196;SDS011;27866;48.146;17.098;2023-03-05T03:33:22;20.98;;;11.60;;
42196;SDS011;27866;48.146;17.098;2023-03-05T03:37:33;23.55;;;11.93;;
42196;SDS011;27866;48.146;17.098;2023-03-05T03:41:45;22.08;;;12.32;;
42196;SDS011;27866;48.146;17.098;2023-03-05T03:50:10;19.88;;;11.38;;
42196;SDS011;27866;48.146;17.098;2023-03-05T03:54:21;24.10;;;12.20;;
42196;SDS011;27866;48.146;17.098;2023-03-05T03:58:33;24.63;;;12.82;;
42196;SDS011;27866;48.146;17.098;2023-03-05T04:02:45;21.35;;;11.82;;
42196;SDS011;27866;48.146;17.098;2023-03-05T04:06:56;22.65;;;12.07;;
42196;SDS011;27866;48.146;17.098;2023-03-05T04:11:08;22.95;;;12.63;;
42196;SDS011;27866;48.146;17.098;2023-03-05T04:15:20;25.33;;;13.68;;
42196;SDS011;27866;48.146;17.098;2023-03-05T04:19:31;25.10;;;12.90;;
42196;SDS011;27866;48.146;17.098;2023-03-05T04:23:42;24.98;;;12.95;;
42196;SDS011;27866;48.146;17.098;2023-03-05T04:27:53;26.77;;;13.13;;
42196;SDS011;27866;48.146;17.098;2023-03-05T04:32:05;23.25;;;12.77;;
42196;SDS011;27866;48.146;17.098;2023-03-05T04:36:16;23.45;;;12.75;;
42196;SDS011;27866;48.146;17.098;2023-03-05T04:40:27;27.02;;;13.77;;
42196;SDS011;27866;48.146;17.098;2023-03-05T04:44:39;25.27;;;13.32;;
42196;SDS011;27866;48.146;17.098;2023-03-05T04:48:50;24.98;;;13.35;;
42196;SDS011;27866;48.146;17.098;2023-03-05T04:53:02;25.77;;;13.38;;
42196;SDS011;27866;48.146;17.098;2023-03-05T04:57:14;26.50;;;14.07;;
42196;SDS011;27866;48.146;17.098;2023-03-05T05:01:25;25.02;;;13.07;;
42196;SDS011;27866;48.146;17.098;2023-03-05T05:05:38;27.15;;;13.88;;
42196;SDS011;27866;48.146;17.098;2023-03-05T05:09:49;27.05;;;13.85;;
42196;SDS011;27866;48.146;17.098;2023-03-05T05:14:00;26.83;;;14.13;;
42196;SDS011;27866;48.146;17.098;2023-03-05T05:18:12;22.85;;;12.93;;
42196;SDS011;27866;48.146;17.098;2023-03-05T05:22:24;28.25;;;13.88;;
42196;SDS011;27866;48.146;17.098;2023-03-05T05:26:36;26.05;;;13.27;;
42196;SDS011;27866;48.146;17.098;2023-03-05T05:30:47;23.92;;;13.43;;
42196;SDS011;27866;48.146;17.098;2023-03-05T05:34:58;24.20;;;13.65;;
42196;SDS011;27866;48.146;17.098;2023-03-05T05:39:10;23.77;;;12.60;;
42196;SDS011;27866;48.146;17.098;2023-03-05T05:43:21;26.60;;;13.80;;
42196;SDS011;27866;48.146;17.098;2023-03-05T05:47:32;21.60;;;12.75;;
42196;SDS011;27866;48.146;17.098;2023-03-05T05:51:43;23.75;;;13.43;;
42196;SDS011;27866;48.146;17.098;2023-03-05T05:55:55;24.63;;;13.45;;
42196;SDS011;27866;48.146;17.098;2023-03-05T06:00:07;22.58;;;12.85;;
42196;SDS011;27866;48.146;17.098;2023-03-05T06:04:25;22.42;;;13.40;;
42196;SDS011;27866;48.146;17.098;2023-03-05T06:08:36;21.63;;;12.88;;
42196;SDS011;27866;48.146;17.098;2023-03-05T06:12:48;21.90;;;12.90;;
42196;SDS011;27866;48.146;17.098;2023-03-05T06:16:59;26.40;;;13.35;;
42196;SDS011;27866;48.146;17.098;2023-03-05T06:21:11;24.52;;;12.38;;
42196;SDS011;27866;48.146;17.098;2023-03-05T06:25:25;21.35;;;11.68;;
42196;SDS011;27866;48.146;17.098;2023-03-05T06:29:36;22.52;;;12.85;;
42196;SDS011;27866;48.146;17.098;2023-03-05T06:33:47;22.67;;;11.60;;
42196;SDS011;27866;48.146;17.098;2023-03-05T06:37:59;22.42;;;12.25;;
42196;SDS011;27866;48.146;17.098;2023-03-05T06:42:10;25.48;;;12.35;;
42196;SDS011;27866;48.146;17.098;2023-03-05T06:46:23;26.45;;;13.20;;
42196;SDS011;27866;48.146;17.098;2023-03-05T06:50:39;22.08;;;11.65;;
42196;SDS011;27866;48.146;17.098;2023-03-05T06:54:51;22.60;;;11.82;;
42196;SDS011;27866;48.146;17.098;2023-03-05T06:59:05;22.77;;;12.23;;
42196;SDS011;27866;48.146;17.098;2023-03-05T07:03:17;23.95;;;12.23;;
42196;SDS011;27866;48.146;17.098;2023-03-05T07:07:28;22.58;;;12.52;;
42196;SDS011;27866;48.146;17.098;2023-03-05T07:11:40;19.23;;;11.88;;
42196;SDS011;27866;48.146;17.098;2023-03-05T07:15:51;26.02;;;12.52;;
42196;SDS011;27866;48.146;17.098;2023-03-05T07:20:03;23.88;;;12.60;;
42196;SDS011;27866;48.146;17.098;2023-03-05T07:24:15;21.92;;;13.07;;
42196;SDS011;27866;48.146;17.098;2023-03-05T07:28:26;21.98;;;12.48;;
42196;SDS011;27866;48.146;17.098;2023-03-05T07:32:38;23.42;;;12.60;;
42196;SDS011;27866;48.146;17.098;2023-03-05T07:36:49;24.52;;;12.60;;
42196;SDS011;27866;48.146;17.098;2023-03-05T07:41:02;19.00;;;11.77;;
42196;SDS011;27866;48.146;17.098;2023-03-05T07:45:16;22.70;;;12.77;;
42196;SDS011;27866;48.146;17.098;2023-03-05T07:49:27;23.42;;;12.05;;
42196;SDS011;27866;48.146;17.098;2023-03-05T07:53:39;21.48;;;12.27;;
42196;SDS011;27866;48.146;17.098;2023-03-05T07:57:53;22.85;;;13.32;;
42196;SDS011;27866;48.146;17.098;2023-03-05T08:02:05;22.52;;;12.45;;
42196;SDS011;27866;48.146;17.098;2023-03-05T08:06:16;22.38;;;11.88;;
42196;SDS011;27866;48.146;17.098;2023-03-05T08:10:28;22.20;;;12.93;;
42196;SDS011;27866;48.146;17.098;2023-03-05T08:14:39;16.50;;;11.05;;
42196;SDS011;27866;48.146;17.098;2023-03-05T08:18:52;22.45;;;12.15;;
42196;SDS011;27866;48.146;17.098;2023-03-05T08:23:06;24.00;;;12.77;;
42196;SDS011;27866;48.146;17.098;2023-03-05T08:27:18;25.75;;;12.93;;
42196;SDS011;27866;48.146;17.098;2023-03-05T08:31:29;19.95;;;11.93;;
42196;SDS011;27866;48.146;17.098;2023-03-05T08:35:41;21.52;;;12.68;;
42196;SDS011;27866;48.146;17.098;2023-03-05T08:39:53;24.33;;;13.07;;
42196;SDS011;27866;48.146;17.098;2023-03-05T08:44:05;20.70;;;12.73;;
42196;SDS011;27866;48.146;17.098;2023-03-05T08:48:17;22.95;;;12.85;;
42196;SDS011;27866;48.146;17.098;2023-03-05T08:52:29;22.02;;;12.65;;
42196;SDS011;27866;48.146;17.098;2023-03-05T08:56:40;21.23;;;12.63;;
42196;SDS011;27866;48.146;17.098;2023-03-05T09:00:51;21.35;;;12.43;;
42196;SDS011;27866;48.146;17.098;2023-03-05T09:05:02;22.05;;;13.75;;
42196;SDS011;27866;48.146;17.098;2023-03-05T09:09:14;20.33;;;12.05;;
42196;SDS011;27866;48.146;17.098;2023-03-05T09:13:25;30.08;;;12.90;;
42196;SDS011;27866;48.146;17.098;2023-03-05T09:17:37;23.35;;;12.73;;
42196;SDS011;27866;48.146;17.098;2023-03-05T09:21:51;20.83;;;12.50;;
42196;SDS011;27866;48.146;17.098;2023-03-05T09:26:06;21.27;;;11.68;;
42196;SDS011;27866;48.146;17.098;2023-03-05T09:30:21;19.27;;;12.13;;
42196;SDS011;27866;48.146;17.098;2023-03-05T09:34:32;21.23;;;12.68;;
42196;SDS011;27866;48.146;17.098;2023-03-05T09:38:44;20.58;;;11.60;;
42196;SDS011;27866;48.146;17.098;2023-03-05T09:43:15;20.13;;;12.10;;
42196;SDS011;27866;48.146;17.098;2023-03-05T09:47:57;19.17;;;11.90;;
42196;SDS011;27866;48.146;17.098;2023-03-05T09:52:49;18.05;;;12.18;;
42196;SDS011;27866;48.146;17.098;2023-03-05T09:57:11;19.33;;;11.85;;
42196;SDS011;27866;48.146;17.098;2023-03-05T10:06:34;18.02;;;11.60;;
42196;SDS011;27866;48.146;17.098;2023-03-05T10:10:42;16.30;;;10.82;;
42196;SDS011;27866;48.146;17.098;2023-03-05T10:15:02;17.38;;;10.80;;
42196;SDS011;27866;48.146;17.098;2023-03-05T10:24:08;19.17;;;11.63;;
42196;SDS011;27866;48.146;17.098;2023-03-05T10:33:24;17.23;;;11.15;;
42196;SDS011;27866;48.146;17.098;2023-03-05T10:38:12;16.63;;;10.80;;
42196;SDS011;27866;48.146;17.098;2023-03-05T10:56:03;13.68;;;9.60;;
42196;SDS011;27866;48.146;17.098;2023-03-05T11:00:24;18.77;;;10.83;;
42196;SDS011;27866;48.146;17.098;2023-03-05T11:04:41;18.30;;;10.40;;
42196;SDS011;27866;48.146;17.098;2023-03-05T11:08:53;15.90;;;10.63;;
42196;SDS011;27866;48.146;17.098;2023-03-05T11:13:17;17.77;;;10.48;;
42196;SDS011;27866;48.146;17.098;2023-03-05T11:17:36;15.82;;;10.13;;
42196;SDS011;27866;48.146;17.098;2023-03-05T11:22:25;19.30;;;11.77;;
42196;SDS011;27866;48.146;17.098;2023-03-05T11:26:36;20.92;;;11.63;;
42196;SDS011;27866;48.146;17.098;2023-03-05T11:30:57;19.63;;;10.82;;
42196;SDS011;27866;48.146;17.098;2023-03-05T11:35:35;20.77;;;11.70;;
42196;SDS011;27866;48.146;17.098;2023-03-05T11:39:54;13.80;;;8.45;;
42196;SDS011;27866;48.146;17.098;2023-03-05T11:44:28;15.35;;;8.73;;
42196;SDS011;27866;48.146;17.098;2023-03-05T11:48:59;12.90;;;7.25;;
42196;SDS011;27866;48.146;17.098;2023-03-05T11:53:19;12.48;;;7.45;;
42196;SDS011;27866;48.146;17.098;2023-03-05T11:57:45;13.63;;;6.70;;
42196;SDS011;27866;48.146;17.098;2023-03-05T12:02:23;12.20;;;6.40;;
42196;SDS011;27866;48.146;17.098;2023-03-05T12:06:47;12.95;;;7.25;;
42196;SDS011;27866;48.146;17.098;2023-03-05T12:11:17;11.40;;;7.05;;
42196;SDS011;27866;48.146;17.098;2023-03-05T12:20:31;11.88;;;6.75;;
42196;SDS011;27866;48.146;17.098;2023-03-05T12:34:33;14.57;;;6.72;;
42196;SDS011;27866;48.146;17.098;2023-03-05T12:38:52;12.98;;;7.10;;
42196;SDS011;27866;48.146;17.098;2023-03-05T12:43:09;13.67;;;6.80;;
42196;SDS011;27866;48.146;17.098;2023-03-05T12:47:41;13.90;;;6.82;;
42196;SDS011;27866;48.146;17.098;2023-03-05T12:52:22;14.23;;;6.78;;
42196;SDS011;27866;48.146;17.098;2023-03-05T12:56:36;12.25;;;6.20;;
42196;SDS011;27866;48.146;17.098;2023-03-05T13:01:39;11.18;;;6.13;;
42196;SDS011;27866;48.146;17.098;2023-03-05T13:06:27;10.95;;;6.43;;
42196;SDS011;27866;48.146;17.098;2023-03-05T13:10:49;11.25;;;6.35;;
42196;SDS011;27866;48.146;17.098;2023-03-05T13:15:30;12.23;;;6.03;;
42196;SDS011;27866;48.146;17.098;2023-03-05T13:19:42;9.50;;;5.72;;
42196;SDS011;27866;48.146;17.098;2023-03-05T13:23:55;10.60;;;5.97;;
42196;SDS011;27866;48.146;17.098;2023-03-05T13:28:13;10.70;;;5.70;;
42196;SDS011;27866;48.146;17.098;2023-03-05T13:32:27;12.57;;;5.60;;
42196;SDS011;27866;48.146;17.098;2023-03-05T13:36:44;12.52;;;5.78;;
42196;SDS011;27866;48.146;17.098;2023-03-05T13:49:41;11.07;;;5.75;;
42196;SDS011;27866;48.146;17.098;2023-03-05T13:53:53;11.27;;;6.07;;
42196;SDS011;27866;48.146;17.098;2023-03-05T13:58:05;10.88;;;5.75;;
42196;SDS011;27866;48.146;17.098;2023-03-05T14:02:59;8.98;;;4.90;;
42196;SDS011;27866;48.146;17.098;2023-03-05T14:07:30;9.23;;;5.40;;
42196;SDS011;27866;48.146;17.098;2023-03-05T14:16:31;9.87;;;5.20;;
42196;SDS011;27866;48.146;17.098;2023-03-05T14:29:44;11.00;;;5.45;;
42196;SDS011;27866;48.146;17.098;2023-03-05T14:34:04;7.93;;;4.50;;
42196;SDS011;27866;48.146;17.098;2023-03-05T14:38:24;7.43;;;4.70;;
42196;SDS011;27866;48.146;17.098;2023-03-05T14:46:50;7.80;;;4.57;;
42196;SDS011;27866;48.146;17.098;2023-03-05T14:51:02;8.50;;;5.10;;
42196;SDS011;27866;48.146;17.098;2023-03-05T14:55:15;9.45;;;4.75;;
42196;SDS011;27866;48.146;17.098;2023-03-05T14:59:30;9.10;;;4.53;;
42196;SDS011;27866;48.146;17.098;2023-03-05T15:03:41;7.97;;;4.55;;
42196;SDS011;27866;48.146;17.098;2023-03-05T15:07:52;8.68;;;4.72;;
42196;SDS011;27866;48.146;17.098;2023-03-05T15:12:04;8.07;;;4.53;;
42196;SDS011;27866;48.146;17.098;2023-03-05T15:16:16;9.15;;;4.75;;
42196;SDS011;27866;48.146;17.098;2023-03-05T15:20:28;9.55;;;4.25;;
42196;SDS011;27866;48.146;17.098;2023-03-05T15:24:41;8.73;;;4.53;;
42196;SDS011;27866;48.146;17.098;2023-03-05T15:28:53;7.20;;;4.07;;
42196;SDS011;27866;48.146;17.098;2023-03-05T15:33:05;8.20;;;4.35;;
42196;SDS011;27866;48.146;17.098;2023-03-05T15:37:21;7.25;;;4.75;;
42196;SDS011;27866;48.146;17.098;2023-03-05T15:41:33;12.05;;;5.05;;
42196;SDS011;27866;48.146;17.098;2023-03-05T15:45:44;7.40;;;4.45;;
42196;SDS011;27866;48.146;17.098;2023-03-05T15:49:57;8.02;;;4.20;;
42196;SDS011;27866;48.146;17.098;2023-03-05T15:54:08;10.90;;;4.53;;
42196;SDS011;27866;48.146;17.098;2023-03-05T15:58:19;8.82;;;4.35;;
42196;SDS011;27866;48.146;17.098;2023-03-05T16:02:31;8.55;;;4.57;;
42196;SDS011;27866;48.146;17.098;2023-03-05T16:06:45;7.60;;;4.57;;
42196;SDS011;27866;48.146;17.098;2023-03-05T16:10:58;7.22;;;4.07;;
42196;SDS011;27866;48.146;17.098;2023-03-05T16:15:11;7.75;;;4.20;;
42196;SDS011;27866;48.146;17.098;2023-03-05T16:19:26;8.70;;;3.55;;
42196;SDS011;27866;48.146;17.098;2023-03-05T16:23:39;8.60;;;3.80;;
42196;SDS011;27866;48.146;17.098;2023-03-05T16:27:51;6.68;;;3.70;;
42196;SDS011;27866;48.146;17.098;2023-03-05T16:32:02;5.63;;;3.10;;
42196;SDS011;27866;48.146;17.098;2023-03-05T16:40:36;7.55;;;3.53;;
42196;SDS011;27866;48.146;17.098;2023-03-05T16:44:49;12.00;;;5.28;;
42196;SDS011;27866;48.146;17.098;2023-03-05T16:49:01;5.82;;;3.03;;
42196;SDS011;27866;48.146;17.098;2023-03-05T16:53:13;5.63;;;3.03;;
42196;SDS011;27866;48.146;17.098;2023-03-05T16:57:24;5.70;;;3.13;;
42196;SDS011;27866;48.146;17.098;2023-03-05T17:01:38;4.97;;;3.00;;
42196;SDS011;27866;48.146;17.098;2023-03-05T17:05:49;6.53;;;3.50;;
42196;SDS011;27866;48.146;17.098;2023-03-05T17:10:00;5.38;;;2.95;;
42196;SDS011;27866;48.146;17.098;2023-03-05T17:14:12;5.60;;;2.78;;
42196;SDS011;27866;48.146;17.098;2023-03-05T17:18:23;4.68;;;2.65;;
42196;SDS011;27866;48.146;17.098;2023-03-05T17:22:34;6.13;;;2.58;;
42196;SDS011;27866;48.146;17.098;2023-03-05T17:26:45;7.88;;;3.00;;
42196;SDS011;27866;48.146;17.098;2023-03-05T17:30:57;7.03;;;3.00;;
42196;SDS011;27866;48.146;17.098;2023-03-05T17:35:17;5.20;;;3.17;;
42196;SDS011;27866;48.146;17.098;2023-03-05T17:39:31;7.80;;;3.13;;
42196;SDS011;27866;48.146;17.098;2023-03-05T17:43:42;8.88;;;3.33;;
42196;SDS011;27866;48.146;17.098;2023-03-05T17:47:54;6.13;;;3.03;;
42196;SDS011;27866;48.146;17.098;2023-03-05T17:52:05;6.72;;;3.00;;
42196;SDS011;27866;48.146;17.098;2023-03-05T17:56:17;5.57;;;2.90;;
42196;SDS011;27866;48.146;17.098;2023-03-05T18:00:31;6.40;;;3.10;;
42196;SDS011;27866;48.146;17.098;2023-03-05T18:04:43;6.43;;;2.80;;
42196;SDS011;27866;48.146;17.098;2023-03-05T18:08:56;6.10;;;2.70;;
42196;SDS011;27866;48.146;17.098;2023-03-05T18:13:08;8.32;;;2.90;;
42196;SDS011;27866;48.146;17.098;2023-03-05T18:17:19;8.70;;;2.95;;
42196;SDS011;27866;48.146;17.098;2023-03-05T18:21:34;5.45;;;2.92;;
42196;SDS011;27866;48.146;17.098;2023-03-05T18:25:45;8.80;;;2.72;;
42196;SDS011;27866;48.146;17.098;2023-03-05T18:29:57;6.13;;;2.97;;
42196;SDS011;27866;48.146;17.098;2023-03-05T18:34:08;5.07;;;2.78;;
42196;SDS011;27866;48.146;17.098;2023-03-05T18:38:20;6.22;;;3.28;;
42196;SDS011;27866;48.146;17.098;2023-03-05T18:46:46;7.07;;;3.20;;
42196;SDS011;27866;48.146;17.098;2023-03-05T18:50:57;7.70;;;3.40;;
42196;SDS011;27866;48.146;17.098;2023-03-05T18:55:19;6.22;;;3.08;;
42196;SDS011;27866;48.146;17.098;2023-03-05T18:59:36;7.78;;;2.90;;
42196;SDS011;27866;48.146;17.098;2023-03-05T19:03:47;6.18;;;3.05;;
42196;SDS011;27866;48.146;17.098;2023-03-05T19:07:59;5.15;;;3.08;;
42196;SDS011;27866;48.146;17.098;2023-03-05T19:12:11;6.63;;;2.97;;
42196;SDS011;27866;48.146;17.098;2023-03-05T19:20:53;6.32;;;3.47;;
42196;SDS011;27866;48.146;17.098;2023-03-05T19:25:05;7.53;;;3.42;;
42196;SDS011;27866;48.146;17.098;2023-03-05T19:29:18;7.35;;;3.30;;
42196;SDS011;27866;48.146;17.098;2023-03-05T19:33:29;5.60;;;3.13;;
42196;SDS011;27866;48.146;17.098;2023-03-05T19:37:41;9.02;;;3.25;;
42196;SDS011;27866;48.146;17.098;2023-03-05T19:41:55;6.28;;;2.95;;
42196;SDS011;27866;48.146;17.098;2023-03-05T19:46:06;7.63;;;2.90;;
42196;SDS011;27866;48.146;17.098;2023-03-05T19:50:18;4.72;;;2.85;;
42196;SDS011;27866;48.146;17.098;2023-03-05T19:54:29;7.53;;;3.53;;
42196;SDS011;27866;48.146;17.098;2023-03-05T19:58:41;7.68;;;3.35;;
42196;SDS011;27866;48.146;17.098;2023-03-05T20:02:54;8.53;;;3.27;;
42196;SDS011;27866;48.146;17.098;2023-03-05T20:07:07;5.80;;;3.63;;
42196;SDS011;27866;48.146;17.098;2023-03-05T20:11:20;6.00;;;3.45;;
42196;SDS011;27866;48.146;17.098;2023-03-05T20:15:32;7.28;;;3.55;;
42196;SDS011;27866;48.146;17.098;2023-03-05T20:19:44;9.07;;;3.50;;
42196;SDS011;27866;48.146;17.098;2023-03-05T20:23:56;4.72;;;3.05;;
42196;SDS011;27866;48.146;17.098;2023-03-05T20:28:11;6.45;;;3.22;;
42196;SDS011;27866;48.146;17.098;2023-03-05T20:32:22;7.43;;;3.70;;
42196;SDS011;27866;48.146;17.098;2023-03-05T20:36:33;6.80;;;3.42;;
42196;SDS011;27866;48.146;17.098;2023-03-05T20:40:48;7.38;;;3.60;;
42196;SDS011;27866;48.146;17.098;2023-03-05T20:45:07;9.10;;;3.47;;
42196;SDS011;27866;48.146;17.098;2023-03-05T20:49:20;6.38;;;3.20;;
42196;SDS011;27866;48.146;17.098;2023-03-05T20:53:31;7.47;;;3.30;;
42196;SDS011;27866;48.146;17.098;2023-03-05T20:57:42;7.32;;;3.67;;
42196;SDS011;27866;48.146;17.098;2023-03-05T21:01:54;7.93;;;3.38;;
42196;SDS011;27866;48.146;17.098;2023-03-05T21:06:06;8.63;;;3.83;;
42196;SDS011;27866;48.146;17.098;2023-03-05T21:10:18;7.65;;;3.65;;
42196;SDS011;27866;48.146;17.098;2023-03-05T21:14:30;7.82;;;3.88;;
42196;SDS011;27866;48.146;17.098;2023-03-05T21:18:47;8.95;;;3.70;;
42196;SDS011;27866;48.146;17.098;2023-03-05T21:23:00;9.80;;;3.83;;
42196;SDS011;27866;48.146;17.098;2023-03-05T21:27:11;8.15;;;4.10;;
42196;SDS011;27866;48.146;17.098;2023-03-05T21:31:22;7.15;;;3.92;;
42196;SDS011;27866;48.146;17.098;2023-03-05T21:35:34;8.55;;;4.15;;
42196;SDS011;27866;48.146;17.098;2023-03-05T21:39:46;7.63;;;4.10;;
42196;SDS011;27866;48.146;17.098;2023-03-05T21:43:58;9.07;;;4.13;;
42196;SDS011;27866;48.146;17.098;2023-03-05T21:48:13;8.85;;;4.00;;
42196;SDS011;27866;48.146;17.098;2023-03-05T21:52:25;8.43;;;4.15;;
42196;SDS011;27866;48.146;17.098;2023-03-05T21:56:36;6.93;;;3.80;;
42196;SDS011;27866;48.146;17.098;2023-03-05T22:00:47;8.05;;;3.80;;
42196;SDS011;27866;48.146;17.098;2023-03-05T22:04:59;8.00;;;4.00;;
42196;SDS011;27866;48.146;17.098;2023-03-05T22:09:10;8.40;;;3.70;;
42196;SDS011;27866;48.146;17.098;2023-03-05T22:13:21;6.65;;;3.55;;
42196;SDS011;27866;48.146;17.098;2023-03-05T22:17:32;10.05;;;3.80;;
42196;SDS011;27866;48.146;17.098;2023-03-05T22:21:43;10.20;;;4.05;;
42196;SDS011;27866;48.146;17.098;2023-03-05T22:25:59;10.65;;;3.60;;
42196;SDS011;27866;48.146;17.098;2023-03-05T22:30:16;7.47;;;3.97;;
42196;SDS011;27866;48.146;17.098;2023-03-05T22:34:27;8.70;;;4.28;;
42196;SDS011;27866;48.146;17.098;2023-03-05T22:38:39;8.15;;;4.38;;
42196;SDS011;27866;48.146;17.098;2023-03-05T22:42:50;9.77;;;4.10;;
42196;SDS011;27866;48.146;17.098;2023-03-05T22:47:01;11.40;;;4.10;;
42196;SDS011;27866;48.146;17.098;2023-03-05T22:51:13;9.57;;;4.00;;
42196;SDS011;27866;48.146;17.098;2023-03-05T22:55:25;6.18;;;3.90;;
42196;SDS011;27866;48.146;17.098;2023-03-05T22:59:36;10.25;;;4.18;;
42196;SDS011;27866;48.146;17.098;2023-03-05T23:03:48;7.78;;;3.90;;
42196;SDS011;27866;48.146;17.098;2023-03-05T23:08:04;9.25;;;4.10;;
42196;SDS011;27866;48.146;17.098;2023-03-05T23:12:15;10.65;;;3.97;;
42196;SDS011;27866;48.146;17.098;2023-03-05T23:16:27;6.95;;;4.20;;
42196;SDS011;27866;48.146;17.098;2023-03-05T23:20:38;7.88;;;3.95;;
42196;SDS011;27866;48.146;17.098;2023-03-05T23:24:49;9.48;;;3.97;;
42196;SDS011;27866;48.146;17.098;2023-03-05T23:29:01;8.13;;;4.22;;
42196;SDS011;27866;48.146;17.098;2023-03-05T23:37:26;9.00;;;4.30;;
42196;SDS011;27866;48.146;17.098;2023-03-05T23:41:37;12.57;;;4.43;;
42196;SDS011;27866;48.146;17.098;2023-03-05T23:45:48;9.50;;;4.38;;
42196;SDS011;27866;48.146;17.098;2023-03-05T23:50:03;9.82;;;4.70;;
42196;SDS011;27866;48.146;17.098;2023-03-05T23:54:17;9.43;;;4.45;;
42196;SDS011;27866;48.146;17.098;2023-03-05T23:58:28;12.15;;;5.13;;
